Latest Weather Observations for Pirlangimpi

IDD60801

Issued at 9:31 pm CST Thursday 28 July 2016 (issued every 30 minutes, with the page automatically refreshed every 10 minutes)

About weather observations | Map of weather stations | Latest weather observations for NT | Other Formats
Station Details ID: 014142 Name: PIRLANGIMPI AIRPORT Lat: -11.40 Lon: 130.42 Height: 18.3 m
Data from the previous 72 hours. | See also: Recent months at Pirlangimpi
Date/Time
CST
Temp
°C
App
Temp
°C
Dew
Point
°C
Rel
Hum
%
Delta-T
°C
Wind Press
QNH
hPa
Press
MSL
hPa
Rain since
9am
mm
Dir  Spd
km/h
Gust
km/h
Spd
kts
Gust
kts
28/09:30pm 21.7 23.1 15.3 67 3.8 SSE 2 4 1 2 1014.2 1014.1 0.0
28/09:00pm 21.7 22.9 14.8 65 4.1 SSE 2 4 1 2 1013.9 1013.8 0.0
28/08:30pm 22.3 23.6 14.2 60 4.7 CALM 0 0 0 0 1013.6 1013.5 0.0
28/08:00pm 23.1 23.9 13.8 55 5.4 NE 2 4 1 2 1013.0 1012.9 0.0
28/07:30pm 24.0 24.7 13.5 52 6.1 ENE 2 4 1 2 1012.8 1012.7 0.0
28/07:00pm 26.9 27.2 13.3 43 8.0 ESE 4 6 2 3 1012.4 1012.3 0.0
28/06:30pm 28.0 27.5 12.8 39 8.9 ESE 7 9 4 5 1012.1 1012.0 0.0
28/06:00pm 28.9 28.1 12.8 37 9.5 SE 9 15 5 8 1011.9 1011.8 0.0
28/05:30pm 29.6 28.4 12.9 35 9.9 E 11 17 6 9 1011.6 1011.5 0.0
28/05:00pm 30.7 29.8 12.6 33 10.7 ENE 9 19 5 10 1011.2 1011.1 0.0
28/04:30pm 31.3 30.2 13.1 33 10.9 E 11 20 6 11 1010.9 1010.8 0.0
28/04:00pm 31.7 30.4 12.5 31 11.4 ENE 11 19 6 10 1010.8 1010.7 0.0
28/03:30pm 32.0 31.2 12.8 31 11.5 E 9 17 5 9 1011.0 1010.9 0.0
28/03:00pm 31.0 28.6 11.4 30 11.4 SE 15 26 8 14 1011.3 1011.2 0.0
28/02:30pm 31.5 29.8 11.3 29 11.7 ESE 11 19 6 10 1011.7 1011.6 0.0
28/02:00pm 31.3 28.9 10.1 27 12.1 ESE 13 22 7 12 1012.1 1012.0 0.0
28/01:30pm 30.0 27.4 9.5 28 11.5 SE 13 24 7 13 1012.6 1012.5 0.0
28/01:00pm 29.9 26.2 9.4 28 11.5 SE 19 32 10 17 1013.2 1013.1 0.0
28/12:30pm 29.4 26.5 9.5 29 11.1 ESE 15 26 8 14 1013.6 1013.5 0.0
28/12:00pm 28.8 26.5 10.5 32 10.4 ESE 13 22 7 12 1014.3 1014.2 0.0
28/11:30am 27.9 24.7 10.1 33 10.0 SE 17 26 9 14 1014.9 1014.8 0.0
28/11:00am 27.6 24.9 11.6 37 9.2 SE 17 32 9 17 1015.1 1015.0 0.0
28/10:30am 27.3 25.6 12.5 40 8.6 SE 13 24 7 13 1015.3 1015.2 0.0
28/10:00am 26.4 25.2 13.9 46 7.4 SE 13 26 7 14 1015.7 1015.6 0.0
28/09:30am 25.0 25.0 16.2 58 5.4 SSE 11 15 6 8 1016.0 1015.9 0.0
28/09:00am 23.6 24.3 17.1 67 4.0 SSE 9 13 5 7 1016.1 1016.0 0.0
28/08:30am 22.6 24.8 19.2 81 2.2 SSE 6 9 3 5 1015.9 1015.8 0.0
28/08:00am 21.5 24.4 19.8 90 1.1 SSE 4 7 2 4 1015.5 1015.4 0.0
28/07:30am 19.7 21.9 18.4 92 0.8 ESE 4 6 2 3 1015.1 1015.0 0.0
28/07:00am 19.2 21.3 17.2 88 1.2 ESE 2 2 1 1 1014.8 1014.7 0.0
28/06:30am 20.1 22.3 18.4 90 1.1 E 4 6 2 3 1014.3 1014.2 0.0
28/06:00am 20.1 22.6 18.1 88 1.2 SE 2 4 1 2 1014.1 1014.0 0.0
28/05:30am 19.9 21.8 17.7 87 1.4 SSE 4 4 2 2 1014.0 1013.9 0.0
28/05:00am 20.1 22.2 18.1 88 1.2 SSE 4 6 2 3 1013.9 1013.8 0.0
28/04:30am 22.1 24.4 19.5 85 1.7 E 6 7 3 4 1013.6 1013.5 0.0
28/04:00am 20.1 21.8 18.1 88 1.2 E 6 7 3 4 1013.7 1013.6 0.0
28/03:30am 19.8 22.4 17.6 87 1.3 CALM 0 0 0 0 1013.9 1013.8 0.0
28/03:00am 20.3 22.7 17.9 86 1.5 SE 2 4 1 2 1014.0 1013.9 0.0
28/02:30am 21.1 23.6 18.1 83 1.9 SE 2 4 1 2 1014.0 1013.9 0.0
28/02:00am 21.5 23.7 18.3 82 2.0 SE 4 6 2 3 1014.2 1014.1 0.0
28/01:30am 22.0 24.5 19.0 83 1.9 ESE 4 6 2 3 1014.3 1014.2 0.0
28/01:00am 21.9 24.2 18.5 81 2.1 SSE 4 6 2 3 1014.3 1014.2 0.0
28/12:30am 22.1 23.9 18.3 79 2.4 SSE 6 9 3 5 1014.2 1014.1 0.0
28/12:00am 23.2 25.0 18.3 74 3.1 NE 6 7 3 4 1014.1 1014.0 0.0
 
Date/Time
CST
Temp
°C
App
Temp
°C
Dew
Point
°C
Rel
Hum
%
Delta-T
°C
Wind Press
QNH
hPa
Press
MSL
hPa
Rain since
9am
mm
Dir  Spd
km/h
Gust
km/h
Spd
kts
Gust
kts
27/11:30pm 23.4 25.3 18.5 74 3.1 NE 6 9 3 5 1013.9 1013.8 0.0
27/11:00pm 23.4 25.1 18.1 72 3.3 NE 6 9 3 5 1013.9 1013.8 0.0
27/10:30pm 23.6 25.3 18.0 71 3.5 NE 6 9 3 5 1013.9 1013.8 0.0
27/10:00pm 23.5 24.9 17.7 70 3.6 NE 7 11 4 6 1013.8 1013.7 0.0
27/09:30pm 23.4 24.4 16.4 64 4.3 NE 6 7 3 4 1013.7 1013.6 0.0
27/09:00pm 23.7 24.2 14.9 57 5.2 NE 6 9 3 5 1013.5 1013.4 0.0
27/08:30pm 22.9 22.9 13.7 56 5.4 NE 6 9 3 5 1013.1 1013.0 0.0
27/08:00pm 25.0 24.9 13.9 50 6.5 ENE 7 9 4 5 1012.6 1012.5 0.0
27/07:30pm 23.8 23.8 13.6 52 6.0 ENE 6 7 3 4 1012.5 1012.4 0.0
27/07:00pm 25.9 26.1 13.1 45 7.5 E 4 6 2 3 1012.4 1012.3 0.0
27/06:30pm 28.2 27.8 12.9 38 9.0 E 7 11 4 6 1012.1 1012.0 0.0
27/06:00pm 29.2 27.4 12.2 35 9.9 E 13 20 7 11 1011.8 1011.7 0.0
27/05:30pm 30.1 27.2 11.1 31 10.9 E 17 28 9 15 1011.5 1011.4 0.0
27/05:00pm 30.9 28.3 10.8 29 11.6 E 15 30 8 16 1011.3 1011.2 0.0
27/04:30pm 31.2 27.6 10.0 27 12.1 E 19 28 10 15 1011.1 1011.0 0.0
27/04:00pm 31.5 28.7 11.3 29 11.7 E 17 28 9 15 1011.1 1011.0 0.0
27/03:30pm 31.4 28.7 11.7 29 11.5 E 17 32 9 17 1011.1 1011.0 0.0
27/03:00pm 31.4 28.2 11.2 29 11.7 ESE 19 30 10 16 1011.2 1011.1 0.0
27/02:30pm 31.9 29.2 11.7 29 11.8 E 17 28 9 15 1011.5 1011.4 0.0
27/02:00pm 31.1 27.9 12.0 31 11.2 ESE 20 37 11 20 1011.9 1011.8 0.0
27/01:30pm 31.1 28.1 12.0 31 11.2 ESE 19 35 10 19 1012.2 1012.1 0.0
27/01:00pm 30.5 27.5 12.4 33 10.7 E 20 35 11 19 1012.5 1012.4 0.0
27/12:30pm 30.3 27.5 13.1 34 10.2 SE 20 35 11 19 1013.0 1012.9 0.0
27/12:00pm 30.0 27.7 14.1 37 9.6 SE 19 32 10 17 1013.5 1013.4 0.0
27/11:30am 29.9 27.6 14.0 37 9.6 ESE 19 28 10 15 1013.8 1013.7 0.0
27/11:00am 29.2 28.2 16.7 46 7.8 SE 17 28 9 15 1014.2 1014.1 0.0
27/10:30am 28.6 28.6 18.1 53 6.7 E 15 26 8 14 1014.5 1014.4 0.0
27/10:00am 27.3 28.2 20.1 64 4.7 ESE 15 24 8 13 1014.6 1014.5 0.0
27/09:30am 26.8 29.2 21.6 73 3.5 ESE 11 20 6 11 1014.7 1014.6 0.0
27/09:00am 24.8 27.7 20.7 78 2.7 SSE 6 9 3 5 1014.6 1014.5 0.0
27/08:30am 23.6 26.3 20.3 82 2.1 SE 6 7 3 4 1014.3 1014.2 0.0
27/08:00am 22.2 24.7 19.9 87 1.5 ESE 6 6 3 3 1014.1 1014.0 0.0
27/07:30am 20.7 23.4 19.4 92 0.8 E 4 7 2 4 1013.8 1013.7 0.0
27/07:00am 19.8 22.7 18.3 91 0.9 CALM 0 0 0 0 1013.6 1013.5 0.0
27/06:30am 20.2 23.3 18.7 91 0.9 CALM 0 0 0 0 1013.3 1013.2 0.0
27/06:00am 20.3 23.3 18.4 89 1.2 CALM 0 0 0 0 1013.2 1013.1 0.0
27/05:30am 20.6 23.6 18.5 88 1.3 CALM 0 0 0 0 1013.0 1012.9 0.0
27/05:00am 21.3 24.1 18.9 86 1.5 SE 2 4 1 2 1012.8 1012.7 0.0
27/04:30am 21.8 24.4 19.2 85 1.6 ESE 4 4 2 2 1012.7 1012.6 0.0
27/04:00am 22.0 25.1 19.5 86 1.6 SE 2 4 1 2 1012.6 1012.5 0.0
27/03:30am 22.3 25.3 20.0 87 1.5 SE 4 6 2 3 1012.6 1012.5 0.0
27/03:00am 22.3 25.5 20.4 89 1.2 SE 4 7 2 4 1012.8 1012.7 0.0
27/02:30am 21.9 25.1 20.4 91 1.0 SE 4 6 2 3 1012.8 1012.7 0.0
27/02:00am 21.9 24.7 20.5 92 0.9 SSE 6 7 3 4 1012.9 1012.8 0.0
27/01:30am 21.4 24.8 19.3 88 1.3 CALM 0 0 0 0 1012.9 1012.8 0.0
27/01:00am 22.2 25.3 20.3 89 1.2 SE 4 4 2 2 1013.1 1013.0 0.0
27/12:30am 21.5 25.1 19.8 90 1.1 CALM 0 0 0 0 1013.2 1013.1 0.0
27/12:00am 21.9 25.3 20.2 90 1.1 SE 2 4 1 2 1013.2 1013.1 0.0
 
Date/Time
CST
Temp
°C
App
Temp
°C
Dew
Point
°C
Rel
Hum
%
Delta-T
°C
Wind Press
QNH
hPa
Press
MSL
hPa
Rain since
9am
mm
Dir  Spd
km/h
Gust
km/h
Spd
kts
Gust
kts
26/11:30pm 22.2 25.3 20.3 89 1.2 SSE 4 6 2 3 1013.2 1013.1 0.0
26/11:00pm 22.1 25.7 19.8 87 1.5 CALM 0 0 0 0 1013.1 1013.0 0.0
26/10:30pm 22.4 26.2 20.1 87 1.5 CALM 0 0 0 0 1013.0 1012.9 0.0
26/10:00pm 22.4 26.1 19.9 86 1.6 CALM 0 0 0 0 1012.9 1012.8 0.0
26/09:30pm 22.9 26.6 19.9 83 1.9 CALM 0 0 0 0 1012.6 1012.5 0.0
26/09:00pm 23.6 27.4 20.1 81 2.3 CALM 0 0 0 0 1012.4 1012.3 0.0
26/08:30pm 24.3 28.1 20.2 78 2.7 CALM 0 4 0 2 1012.2 1012.1 0.0
26/08:00pm 24.7 27.7 20.0 75 3.0 ENE 4 6 2 3 1011.9 1011.8 0.0
26/07:30pm 25.6 27.9 19.5 69 3.9 ENE 6 9 3 5 1011.6 1011.5 0.0
26/07:00pm 26.4 28.2 18.3 61 5.1 NE 6 11 3 6 1011.3 1011.2 0.0
26/06:30pm 27.6 28.4 17.2 53 6.5 ENE 9 17 5 9 1010.9 1010.8 0.0
26/06:00pm 30.1 28.4 11.1 31 11.0 ENE 11 22 6 12 1010.4 1010.3 0.0
26/05:30pm 31.0 28.5 9.8 27 12.0 E 13 22 7 12 1010.1 1010.0 0.0
26/05:00pm 32.1 29.4 10.2 26 12.5 E 15 24 8 13 1010.0 1009.9 0.0
26/04:30pm 32.5 29.9 9.3 24 13.1 E 13 20 7 11 1009.9 1009.8 0.0
26/04:00pm 32.0 28.9 8.9 24 13.0 E 15 24 8 13 1010.0 1009.9 0.0
26/03:30pm 32.4 29.5 11.0 27 12.4 E 17 24 9 13 1010.0 1009.9 0.0
26/03:00pm 32.1 29.3 11.3 28 12.1 ESE 17 30 9 16 1010.3 1010.2 0.0
26/02:30pm 32.4 29.8 12.1 29 12.0 E 17 28 9 15 1010.4 1010.3 0.0
26/02:00pm 32.0 30.0 12.8 31 11.4 ESE 15 30 8 16 1010.8 1010.7 0.0
26/01:30pm 31.8 29.0 12.6 31 11.4 E 19 32 10 17 1011.2 1011.1 0.0
26/01:00pm 31.9 29.6 14.1 34 10.8 E 19 28 10 15 1011.8 1011.7 0.0
26/12:30pm 31.4 29.5 14.1 35 10.5 SE 17 28 9 15 1012.2 1012.1 0.0
26/12:00pm 30.9 29.9 15.7 39 9.4 SE 15 32 8 17 1012.7 1012.6 0.0
26/11:30am 30.4 29.9 16.8 44 8.6 ESE 15 28 8 15 1013.1 1013.0 0.0
26/11:00am 29.7 28.7 16.5 45 8.3 E 17 32 9 17 1013.4 1013.3 0.0
26/10:30am 29.1 28.8 18.2 51 7.0 ESE 17 24 9 13 1013.6 1013.5 0.0
26/10:00am 28.6 29.9 19.2 56 6.1 SE 11 19 6 10 1013.8 1013.7 0.0
26/09:30am 27.3 28.9 19.9 64 4.8 SE 11 19 6 10 1013.8 1013.7 0.0
26/09:00am 25.8 28.8 20.8 74 3.3 SE 6 9 3 5 1013.9 1013.8 0.0
26/08:30am 23.2 26.9 20.0 82 2.1 CALM 0 0 0 0 1013.6 1013.5 0.0
26/08:00am 22.3 25.7 19.3 83 1.9 CALM 0 0 0 0 1013.5 1013.4 0.0
26/07:30am 22.0 24.8 18.8 82 2.0 SE 2 2 1 1 1013.2 1013.1 0.0
26/07:00am 22.4 24.9 19.0 81 2.2 SE 4 6 2 3 1012.9 1012.8 0.0
26/06:30am 22.1 24.6 19.1 83 1.9 SE 4 6 2 3 1012.7 1012.6 0.0
26/06:00am 22.3 24.6 19.5 84 1.8 SSE 6 7 3 4 1012.6 1012.5 0.0
26/05:30am 22.5 25.8 19.9 85 1.7 SSE 2 6 1 3 1012.5 1012.4 0.0
26/05:00am 22.4 25.4 20.1 87 1.5 SE 4 4 2 2 1012.6 1012.5 0.0
26/04:30am 22.2 25.3 20.3 89 1.2 SE 4 6 2 3 1012.6 1012.5 0.0
26/04:00am 22.1 25.2 20.2 89 1.2 ESE 4 6 2 3 1012.6 1012.5 0.0
26/03:30am 22.4 25.6 20.5 89 1.2 SE 4 6 2 3 1012.5 1012.4 0.0
26/03:00am 22.7 26.1 21.0 90 1.1 SSE 4 6 2 3 1012.5 1012.4 0.0
26/02:30am 22.4 25.6 20.5 89 1.2 SSE 4 6 2 3 1012.6 1012.5 0.0
26/02:00am 22.4 25.7 20.7 90 1.1 SSE 4 7 2 4 1012.6 1012.5 0.0
26/01:30am 22.3 25.6 20.8 91 1.0 SE 4 6 2 3 1012.6 1012.5 0.0
26/01:00am 22.2 26.1 20.3 89 1.2 CALM 0 2 0 1 1012.7 1012.6 0.0
26/12:30am 21.9 25.2 20.0 89 1.2 SSE 2 4 1 2 1012.6 1012.5 0.0
26/12:00am 22.2 26.0 20.1 88 1.4 CALM 0 0 0 0 1012.8 1012.7 0.0
 
Date/Time
CST
Temp
°C
App
Temp
°C
Dew
Point
°C
Rel
Hum
%
Delta-T
°C
Wind Press
QNH
hPa
Press
MSL
hPa
Rain since
9am
mm
Dir  Spd
km/h
Gust
km/h
Spd
kts
Gust
kts
25/11:30pm 22.4 26.1 19.9 86 1.6 CALM 0 0 0 0 1012.8 1012.7 0.0
25/11:00pm 22.6 26.5 20.3 87 1.5 CALM 0 0 0 0 1012.8 1012.7 0.0
25/10:30pm 22.8 26.4 19.8 83 1.9 CALM 0 0 0 0 1013.0 1012.9 0.0
25/10:00pm 23.1 26.7 19.7 81 2.2 CALM 0 0 0 0 1012.9 1012.8 0.0

Other Formats:

Comma delimited format used in spreadsheet applications
http://www.bom.gov.au/fwo/IDD60801/IDD60801.94119.axf

JavaScript Object Notation format (JSON) in row-major order
http://www.bom.gov.au/fwo/IDD60801/IDD60801.94119.json